Terminal Aerodrome Forecast
Issued by NWS

Home | Current Version | Previous Version | Text Only | Print | Product List | Glossary On
Versions: 1 2 3 4 5 6 7 8 9 10 11 12 13 14 15 16 17 18 19 20 21
680
FTUS43 KGLD 221149
TAFMCK
TAF
KMCK 221149Z 2212/2312 12007KT P6SM -RA OVC060
      TEMPO 2212/2213 OVC005
     FM221300 13010KT 6SM -RA OVC005
     FM221600 13015KT P6SM VCSH OVC008
     FM221800 12015G20KT P6SM OVC008
     FM230200 12015G25KT 3SM BR VCSH OVC008=

USA.gov is the U.S. government's official web portal to all federal, state and local government web resources and services.